sensor_id;sensor_type;location;lat;lon;timestamp;P1;durP1;ratioP1;P2;durP2;ratioP2
68700;SDS011;55682;51.114;5.882;2023-04-06T00:01:31;20.13;;;20.02;;
68700;SDS011;55682;51.114;5.882;2023-04-06T00:03:57;20.43;;;20.40;;
68700;SDS011;55682;51.114;5.882;2023-04-06T00:06:22;20.41;;;20.30;;
68700;SDS011;55682;51.114;5.882;2023-04-06T00:08:48;20.31;;;20.30;;
68700;SDS011;55682;51.114;5.882;2023-04-06T00:11:13;19.79;;;19.79;;
68700;SDS011;55682;51.114;5.882;2023-04-06T00:13:39;19.80;;;19.80;;
68700;SDS011;55682;51.114;5.882;2023-04-06T00:16:05;19.91;;;19.91;;
68700;SDS011;55682;51.114;5.882;2023-04-06T00:18:31;19.67;;;19.56;;
68700;SDS011;55682;51.114;5.882;2023-04-06T00:20:57;20.29;;;20.29;;
68700;SDS011;55682;51.114;5.882;2023-04-06T00:23:23;20.70;;;20.70;;
68700;SDS011;55682;51.114;5.882;2023-04-06T00:25:48;20.39;;;20.39;;
68700;SDS011;55682;51.114;5.882;2023-04-06T00:28:14;20.73;;;20.73;;
68700;SDS011;55682;51.114;5.882;2023-04-06T00:30:40;21.34;;;21.31;;
68700;SDS011;55682;51.114;5.882;2023-04-06T00:33:06;21.21;;;21.21;;
68700;SDS011;55682;51.114;5.882;2023-04-06T00:35:32;21.47;;;21.47;;
68700;SDS011;55682;51.114;5.882;2023-04-06T00:37:57;21.18;;;21.18;;
68700;SDS011;55682;51.114;5.882;2023-04-06T00:40:23;20.95;;;20.94;;
68700;SDS011;55682;51.114;5.882;2023-04-06T00:42:49;21.59;;;21.55;;
68700;SDS011;55682;51.114;5.882;2023-04-06T00:45:15;23.19;;;23.15;;
68700;SDS011;55682;51.114;5.882;2023-04-06T00:47:41;22.47;;;22.39;;
68700;SDS011;55682;51.114;5.882;2023-04-06T00:50:07;23.05;;;22.82;;
68700;SDS011;55682;51.114;5.882;2023-04-06T00:52:34;21.86;;;21.65;;
68700;SDS011;55682;51.114;5.882;2023-04-06T00:55:01;21.40;;;21.40;;
68700;SDS011;55682;51.114;5.882;2023-04-06T00:57:28;20.37;;;20.34;;
68700;SDS011;55682;51.114;5.882;2023-04-06T00:59:55;19.45;;;19.38;;
68700;SDS011;55682;51.114;5.882;2023-04-06T01:02:23;19.15;;;19.15;;
68700;SDS011;55682;51.114;5.882;2023-04-06T01:04:51;20.06;;;20.06;;
68700;SDS011;55682;51.114;5.882;2023-04-06T01:07:42;19.17;;;19.16;;
68700;SDS011;55682;51.114;5.882;2023-04-06T01:10:12;19.76;;;19.73;;
68700;SDS011;55682;51.114;5.882;2023-04-06T01:12:54;20.08;;;20.06;;
68700;SDS011;55682;51.114;5.882;2023-04-06T01:15:37;20.26;;;20.26;;
68700;SDS011;55682;51.114;5.882;2023-04-06T01:18:07;20.23;;;20.20;;
68700;SDS011;55682;51.114;5.882;2023-04-06T01:20:37;20.24;;;20.23;;
68700;SDS011;55682;51.114;5.882;2023-04-06T01:23:03;21.44;;;21.36;;
68700;SDS011;55682;51.114;5.882;2023-04-06T01:25:29;21.64;;;21.63;;
68700;SDS011;55682;51.114;5.882;2023-04-06T01:28:06;21.54;;;21.44;;
68700;SDS011;55682;51.114;5.882;2023-04-06T01:30:58;21.43;;;21.43;;
68700;SDS011;55682;51.114;5.882;2023-04-06T01:33:38;21.55;;;21.52;;
68700;SDS011;55682;51.114;5.882;2023-04-06T01:36:07;22.31;;;22.31;;
68700;SDS011;55682;51.114;5.882;2023-04-06T01:38:34;22.19;;;22.19;;
68700;SDS011;55682;51.114;5.882;2023-04-06T01:41:00;23.12;;;23.07;;
68700;SDS011;55682;51.114;5.882;2023-04-06T01:43:31;22.90;;;22.84;;
68700;SDS011;55682;51.114;5.882;2023-04-06T01:46:03;23.33;;;23.31;;
68700;SDS011;55682;51.114;5.882;2023-04-06T01:48:33;21.93;;;21.87;;
68700;SDS011;55682;51.114;5.882;2023-04-06T01:51:04;22.14;;;22.13;;
68700;SDS011;55682;51.114;5.882;2023-04-06T01:53:33;21.79;;;21.73;;
68700;SDS011;55682;51.114;5.882;2023-04-06T01:56:04;22.09;;;22.03;;
68700;SDS011;55682;51.114;5.882;2023-04-06T01:58:37;21.71;;;21.65;;
68700;SDS011;55682;51.114;5.882;2023-04-06T02:01:03;22.67;;;22.65;;
68700;SDS011;55682;51.114;5.882;2023-04-06T02:03:36;21.89;;;21.84;;
68700;SDS011;55682;51.114;5.882;2023-04-06T02:06:06;21.60;;;21.60;;
68700;SDS011;55682;51.114;5.882;2023-04-06T02:08:36;21.83;;;21.82;;
68700;SDS011;55682;51.114;5.882;2023-04-06T02:11:02;22.21;;;22.19;;
68700;SDS011;55682;51.114;5.882;2023-04-06T02:13:33;21.96;;;21.96;;
68700;SDS011;55682;51.114;5.882;2023-04-06T02:15:58;21.60;;;21.60;;
68700;SDS011;55682;51.114;5.882;2023-04-06T02:18:25;22.41;;;22.41;;
68700;SDS011;55682;51.114;5.882;2023-04-06T02:20:51;22.39;;;22.37;;
68700;SDS011;55682;51.114;5.882;2023-04-06T02:23:17;21.95;;;21.91;;
68700;SDS011;55682;51.114;5.882;2023-04-06T02:25:43;21.83;;;21.81;;
68700;SDS011;55682;51.114;5.882;2023-04-06T02:28:08;21.97;;;21.92;;
68700;SDS011;55682;51.114;5.882;2023-04-06T02:30:34;21.93;;;21.90;;
68700;SDS011;55682;51.114;5.882;2023-04-06T02:33:00;21.40;;;21.36;;
68700;SDS011;55682;51.114;5.882;2023-04-06T02:35:30;21.86;;;21.80;;
68700;SDS011;55682;51.114;5.882;2023-04-06T02:37:56;21.72;;;21.70;;
68700;SDS011;55682;51.114;5.882;2023-04-06T02:40:23;22.18;;;22.18;;
68700;SDS011;55682;51.114;5.882;2023-04-06T02:42:48;21.62;;;21.59;;
68700;SDS011;55682;51.114;5.882;2023-04-06T02:45:17;22.16;;;22.10;;
68700;SDS011;55682;51.114;5.882;2023-04-06T02:47:45;22.33;;;22.26;;
68700;SDS011;55682;51.114;5.882;2023-04-06T02:50:14;22.22;;;22.17;;
68700;SDS011;55682;51.114;5.882;2023-04-06T02:52:47;22.40;;;22.34;;
68700;SDS011;55682;51.114;5.882;2023-04-06T02:55:13;22.67;;;22.64;;
68700;SDS011;55682;51.114;5.882;2023-04-06T02:57:38;22.85;;;22.81;;
68700;SDS011;55682;51.114;5.882;2023-04-06T03:00:04;23.00;;;22.94;;
68700;SDS011;55682;51.114;5.882;2023-04-06T03:02:37;22.30;;;22.25;;
68700;SDS011;55682;51.114;5.882;2023-04-06T03:05:07;23.32;;;23.15;;
68700;SDS011;55682;51.114;5.882;2023-04-06T03:07:37;22.62;;;22.54;;
68700;SDS011;55682;51.114;5.882;2023-04-06T03:10:03;22.75;;;22.64;;
68700;SDS011;55682;51.114;5.882;2023-04-06T03:12:30;22.15;;;22.06;;
68700;SDS011;55682;51.114;5.882;2023-04-06T03:15:25;23.09;;;23.01;;
68700;SDS011;55682;51.114;5.882;2023-04-06T03:17:57;22.88;;;22.85;;
68700;SDS011;55682;51.114;5.882;2023-04-06T03:20:37;23.24;;;23.12;;
68700;SDS011;55682;51.114;5.882;2023-04-06T03:23:02;22.63;;;22.62;;
68700;SDS011;55682;51.114;5.882;2023-04-06T03:25:33;22.60;;;22.54;;
68700;SDS011;55682;51.114;5.882;2023-04-06T03:28:03;22.94;;;22.83;;
68700;SDS011;55682;51.114;5.882;2023-04-06T03:30:30;22.72;;;22.66;;
68700;SDS011;55682;51.114;5.882;2023-04-06T03:32:56;22.15;;;22.12;;
68700;SDS011;55682;51.114;5.882;2023-04-06T03:35:24;22.61;;;22.54;;
68700;SDS011;55682;51.114;5.882;2023-04-06T03:37:50;22.47;;;22.36;;
68700;SDS011;55682;51.114;5.882;2023-04-06T03:40:16;22.49;;;22.45;;
68700;SDS011;55682;51.114;5.882;2023-04-06T03:42:41;22.23;;;22.17;;
68700;SDS011;55682;51.114;5.882;2023-04-06T03:45:11;21.62;;;21.57;;
68700;SDS011;55682;51.114;5.882;2023-04-06T03:47:45;22.51;;;22.43;;
68700;SDS011;55682;51.114;5.882;2023-04-06T03:50:11;21.77;;;21.72;;
68700;SDS011;55682;51.114;5.882;2023-04-06T03:52:37;21.50;;;21.42;;
68700;SDS011;55682;51.114;5.882;2023-04-06T03:55:03;21.54;;;21.40;;
68700;SDS011;55682;51.114;5.882;2023-04-06T03:57:29;21.97;;;21.90;;
68700;SDS011;55682;51.114;5.882;2023-04-06T03:59:56;21.34;;;21.34;;
68700;SDS011;55682;51.114;5.882;2023-04-06T04:02:25;21.27;;;21.18;;
68700;SDS011;55682;51.114;5.882;2023-04-06T04:04:50;21.55;;;21.42;;
68700;SDS011;55682;51.114;5.882;2023-04-06T04:07:17;21.07;;;21.01;;
68700;SDS011;55682;51.114;5.882;2023-04-06T04:09:42;21.09;;;21.06;;
68700;SDS011;55682;51.114;5.882;2023-04-06T04:12:08;21.49;;;21.39;;
68700;SDS011;55682;51.114;5.882;2023-04-06T04:14:34;20.47;;;20.38;;
68700;SDS011;55682;51.114;5.882;2023-04-06T04:17:00;20.65;;;20.63;;
68700;SDS011;55682;51.114;5.882;2023-04-06T04:19:26;20.44;;;20.36;;
68700;SDS011;55682;51.114;5.882;2023-04-06T04:21:51;20.58;;;20.30;;
68700;SDS011;55682;51.114;5.882;2023-04-06T04:24:24;20.50;;;20.44;;
68700;SDS011;55682;51.114;5.882;2023-04-06T04:26:50;20.36;;;20.35;;
68700;SDS011;55682;51.114;5.882;2023-04-06T04:29:15;21.39;;;21.29;;
68700;SDS011;55682;51.114;5.882;2023-04-06T04:31:42;20.88;;;20.85;;
68700;SDS011;55682;51.114;5.882;2023-04-06T04:34:14;20.93;;;20.75;;
68700;SDS011;55682;51.114;5.882;2023-04-06T04:36:40;20.38;;;20.34;;
68700;SDS011;55682;51.114;5.882;2023-04-06T04:39:09;19.55;;;19.35;;
68700;SDS011;55682;51.114;5.882;2023-04-06T04:41:40;19.61;;;19.55;;
68700;SDS011;55682;51.114;5.882;2023-04-06T04:44:08;20.08;;;20.07;;
68700;SDS011;55682;51.114;5.882;2023-04-06T04:46:34;19.94;;;19.86;;
68700;SDS011;55682;51.114;5.882;2023-04-06T04:49:00;20.68;;;20.57;;
68700;SDS011;55682;51.114;5.882;2023-04-06T04:51:27;19.63;;;19.45;;
68700;SDS011;55682;51.114;5.882;2023-04-06T04:54:03;19.71;;;19.65;;
68700;SDS011;55682;51.114;5.882;2023-04-06T04:56:31;19.47;;;19.40;;
68700;SDS011;55682;51.114;5.882;2023-04-06T04:59:06;19.79;;;19.78;;
68700;SDS011;55682;51.114;5.882;2023-04-06T05:01:36;19.58;;;19.52;;
68700;SDS011;55682;51.114;5.882;2023-04-06T05:04:01;18.93;;;18.92;;
68700;SDS011;55682;51.114;5.882;2023-04-06T05:06:27;18.56;;;18.51;;
68700;SDS011;55682;51.114;5.882;2023-04-06T05:08:53;18.65;;;18.55;;
68700;SDS011;55682;51.114;5.882;2023-04-06T05:11:20;18.01;;;17.94;;
68700;SDS011;55682;51.114;5.882;2023-04-06T05:13:53;18.61;;;18.52;;
68700;SDS011;55682;51.114;5.882;2023-04-06T05:16:22;18.54;;;18.50;;
68700;SDS011;55682;51.114;5.882;2023-04-06T05:18:49;18.21;;;18.21;;
68700;SDS011;55682;51.114;5.882;2023-04-06T05:21:15;18.52;;;18.44;;
68700;SDS011;55682;51.114;5.882;2023-04-06T05:23:54;17.64;;;17.52;;
68700;SDS011;55682;51.114;5.882;2023-04-06T05:26:20;17.24;;;17.24;;
68700;SDS011;55682;51.114;5.882;2023-04-06T05:28:47;16.60;;;16.59;;
68700;SDS011;55682;51.114;5.882;2023-04-06T05:31:14;17.42;;;17.33;;
68700;SDS011;55682;51.114;5.882;2023-04-06T05:33:46;17.60;;;17.49;;
68700;SDS011;55682;51.114;5.882;2023-04-06T05:36:14;16.80;;;16.76;;
68700;SDS011;55682;51.114;5.882;2023-04-06T05:38:42;16.39;;;16.39;;
68700;SDS011;55682;51.114;5.882;2023-04-06T05:41:17;17.17;;;17.02;;
68700;SDS011;55682;51.114;5.882;2023-04-06T05:43:44;17.02;;;17.00;;
68700;SDS011;55682;51.114;5.882;2023-04-06T05:46:10;16.65;;;16.65;;
68700;SDS011;55682;51.114;5.882;2023-04-06T05:48:35;16.96;;;16.94;;
68700;SDS011;55682;51.114;5.882;2023-04-06T05:51:02;17.26;;;17.25;;
68700;SDS011;55682;51.114;5.882;2023-04-06T05:53:38;16.36;;;16.18;;
68700;SDS011;55682;51.114;5.882;2023-04-06T05:56:04;16.49;;;16.39;;
68700;SDS011;55682;51.114;5.882;2023-04-06T05:58:30;16.97;;;16.90;;
68700;SDS011;55682;51.114;5.882;2023-04-06T06:00:57;16.17;;;16.13;;
68700;SDS011;55682;51.114;5.882;2023-04-06T06:03:33;16.22;;;16.20;;
68700;SDS011;55682;51.114;5.882;2023-04-06T06:06:00;16.16;;;16.05;;
68700;SDS011;55682;51.114;5.882;2023-04-06T06:08:32;15.98;;;15.91;;
68700;SDS011;55682;51.114;5.882;2023-04-06T06:11:01;16.20;;;16.17;;
68700;SDS011;55682;51.114;5.882;2023-04-06T06:13:27;16.52;;;16.35;;
68700;SDS011;55682;51.114;5.882;2023-04-06T06:15:54;15.81;;;15.79;;
68700;SDS011;55682;51.114;5.882;2023-04-06T06:18:21;16.14;;;16.06;;
68700;SDS011;55682;51.114;5.882;2023-04-06T06:20:50;16.39;;;16.25;;
68700;SDS011;55682;51.114;5.882;2023-04-06T06:23:15;16.04;;;15.91;;
68700;SDS011;55682;51.114;5.882;2023-04-06T06:25:41;16.09;;;16.03;;
68700;SDS011;55682;51.114;5.882;2023-04-06T06:28:07;15.94;;;15.85;;
68700;SDS011;55682;51.114;5.882;2023-04-06T06:30:34;16.37;;;16.15;;
68700;SDS011;55682;51.114;5.882;2023-04-06T06:32:59;15.54;;;15.41;;
68700;SDS011;55682;51.114;5.882;2023-04-06T06:35:27;15.87;;;15.78;;
68700;SDS011;55682;51.114;5.882;2023-04-06T06:37:52;15.74;;;15.73;;
68700;SDS011;55682;51.114;5.882;2023-04-06T06:40:21;15.57;;;15.48;;
68700;SDS011;55682;51.114;5.882;2023-04-06T06:42:49;14.63;;;14.62;;
68700;SDS011;55682;51.114;5.882;2023-04-06T06:45:35;15.29;;;15.25;;
68700;SDS011;55682;51.114;5.882;2023-04-06T06:48:01;15.49;;;15.38;;
68700;SDS011;55682;51.114;5.882;2023-04-06T06:50:26;14.87;;;14.83;;
68700;SDS011;55682;51.114;5.882;2023-04-06T06:52:52;15.85;;;15.78;;
68700;SDS011;55682;51.114;5.882;2023-04-06T06:55:17;15.10;;;15.05;;
68700;SDS011;55682;51.114;5.882;2023-04-06T06:57:44;15.32;;;15.26;;
68700;SDS011;55682;51.114;5.882;2023-04-06T07:00:12;15.45;;;15.32;;
68700;SDS011;55682;51.114;5.882;2023-04-06T07:02:40;15.48;;;15.37;;
68700;SDS011;55682;51.114;5.882;2023-04-06T07:05:06;15.31;;;15.27;;
68700;SDS011;55682;51.114;5.882;2023-04-06T07:07:32;14.91;;;14.91;;
68700;SDS011;55682;51.114;5.882;2023-04-06T07:10:01;14.63;;;14.63;;
68700;SDS011;55682;51.114;5.882;2023-04-06T07:12:26;15.20;;;15.13;;
68700;SDS011;55682;51.114;5.882;2023-04-06T07:14:52;15.83;;;15.73;;
68700;SDS011;55682;51.114;5.882;2023-04-06T07:17:18;15.40;;;15.36;;
68700;SDS011;55682;51.114;5.882;2023-04-06T07:19:44;15.16;;;15.14;;
68700;SDS011;55682;51.114;5.882;2023-04-06T07:22:10;14.98;;;14.93;;
68700;SDS011;55682;51.114;5.882;2023-04-06T07:24:36;15.25;;;15.19;;
68700;SDS011;55682;51.114;5.882;2023-04-06T07:27:02;15.31;;;15.26;;
68700;SDS011;55682;51.114;5.882;2023-04-06T07:29:28;15.22;;;15.22;;
68700;SDS011;55682;51.114;5.882;2023-04-06T07:31:54;14.74;;;14.73;;
68700;SDS011;55682;51.114;5.882;2023-04-06T07:34:21;15.13;;;15.03;;
68700;SDS011;55682;51.114;5.882;2023-04-06T07:36:47;15.30;;;15.25;;
68700;SDS011;55682;51.114;5.882;2023-04-06T07:39:13;15.43;;;15.42;;
68700;SDS011;55682;51.114;5.882;2023-04-06T07:41:39;14.68;;;14.68;;
68700;SDS011;55682;51.114;5.882;2023-04-06T07:44:05;14.54;;;14.50;;
68700;SDS011;55682;51.114;5.882;2023-04-06T07:46:32;15.32;;;15.23;;
68700;SDS011;55682;51.114;5.882;2023-04-06T07:48:59;14.35;;;14.28;;
68700;SDS011;55682;51.114;5.882;2023-04-06T07:51:28;14.06;;;14.03;;
68700;SDS011;55682;51.114;5.882;2023-04-06T07:53:53;14.83;;;14.81;;
68700;SDS011;55682;51.114;5.882;2023-04-06T07:56:19;14.49;;;14.48;;
68700;SDS011;55682;51.114;5.882;2023-04-06T07:58:46;14.72;;;14.59;;
68700;SDS011;55682;51.114;5.882;2023-04-06T08:01:12;14.63;;;14.56;;
68700;SDS011;55682;51.114;5.882;2023-04-06T08:03:38;14.62;;;14.62;;
68700;SDS011;55682;51.114;5.882;2023-04-06T08:06:04;15.10;;;15.03;;
68700;SDS011;55682;51.114;5.882;2023-04-06T08:08:30;14.58;;;14.56;;
68700;SDS011;55682;51.114;5.882;2023-04-06T08:10:56;14.31;;;14.29;;
68700;SDS011;55682;51.114;5.882;2023-04-06T08:13:22;14.68;;;14.68;;
68700;SDS011;55682;51.114;5.882;2023-04-06T08:15:47;14.42;;;14.22;;
68700;SDS011;55682;51.114;5.882;2023-04-06T08:18:13;14.26;;;14.18;;
68700;SDS011;55682;51.114;5.882;2023-04-06T08:20:39;14.19;;;14.15;;
68700;SDS011;55682;51.114;5.882;2023-04-06T08:23:05;14.59;;;14.52;;
68700;SDS011;55682;51.114;5.882;2023-04-06T08:25:33;14.59;;;14.50;;
68700;SDS011;55682;51.114;5.882;2023-04-06T08:28:00;14.43;;;14.42;;
68700;SDS011;55682;51.114;5.882;2023-04-06T08:30:26;13.77;;;13.75;;
68700;SDS011;55682;51.114;5.882;2023-04-06T08:32:51;14.57;;;14.56;;
68700;SDS011;55682;51.114;5.882;2023-04-06T08:35:17;13.91;;;13.85;;
68700;SDS011;55682;51.114;5.882;2023-04-06T08:37:43;14.10;;;13.97;;
68700;SDS011;55682;51.114;5.882;2023-04-06T08:40:08;13.85;;;13.79;;
68700;SDS011;55682;51.114;5.882;2023-04-06T08:42:37;13.57;;;13.56;;
68700;SDS011;55682;51.114;5.882;2023-04-06T08:45:06;12.61;;;12.57;;
68700;SDS011;55682;51.114;5.882;2023-04-06T08:47:34;14.10;;;14.08;;
68700;SDS011;55682;51.114;5.882;2023-04-06T08:50:03;13.84;;;13.77;;
68700;SDS011;55682;51.114;5.882;2023-04-06T08:52:31;12.98;;;12.92;;
68700;SDS011;55682;51.114;5.882;2023-04-06T08:54:59;12.45;;;12.41;;
68700;SDS011;55682;51.114;5.882;2023-04-06T08:57:25;12.37;;;12.33;;
68700;SDS011;55682;51.114;5.882;2023-04-06T08:59:52;12.52;;;12.34;;
68700;SDS011;55682;51.114;5.882;2023-04-06T09:02:19;13.02;;;12.93;;
68700;SDS011;55682;51.114;5.882;2023-04-06T09:04:46;12.46;;;12.46;;
68700;SDS011;55682;51.114;5.882;2023-04-06T09:07:14;12.59;;;12.57;;
68700;SDS011;55682;51.114;5.882;2023-04-06T09:09:41;13.08;;;13.07;;
68700;SDS011;55682;51.114;5.882;2023-04-06T09:15:17;13.53;;;13.52;;
68700;SDS011;55682;51.114;5.882;2023-04-06T09:17:44;13.28;;;13.27;;
68700;SDS011;55682;51.114;5.882;2023-04-06T09:20:11;13.72;;;13.63;;
68700;SDS011;55682;51.114;5.882;2023-04-06T09:22:38;12.63;;;12.62;;
68700;SDS011;55682;51.114;5.882;2023-04-06T09:25:04;13.34;;;13.31;;
68700;SDS011;55682;51.114;5.882;2023-04-06T09:27:31;13.92;;;13.88;;
68700;SDS011;55682;51.114;5.882;2023-04-06T09:30:09;13.19;;;13.18;;
68700;SDS011;55682;51.114;5.882;2023-04-06T09:32:47;14.48;;;14.46;;
68700;SDS011;55682;51.114;5.882;2023-04-06T09:35:15;13.96;;;13.86;;
68700;SDS011;55682;51.114;5.882;2023-04-06T09:37:45;13.99;;;13.74;;
68700;SDS011;55682;51.114;5.882;2023-04-06T09:40:15;12.88;;;12.84;;
68700;SDS011;55682;51.114;5.882;2023-04-06T09:42:45;13.16;;;13.04;;
68700;SDS011;55682;51.114;5.882;2023-04-06T09:45:12;13.11;;;13.08;;
68700;SDS011;55682;51.114;5.882;2023-04-06T09:47:40;13.04;;;12.94;;
68700;SDS011;55682;51.114;5.882;2023-04-06T09:50:09;13.91;;;13.85;;
68700;SDS011;55682;51.114;5.882;2023-04-06T09:52:37;13.69;;;13.63;;
68700;SDS011;55682;51.114;5.882;2023-04-06T09:55:08;14.52;;;14.48;;
68700;SDS011;55682;51.114;5.882;2023-04-06T09:57:43;13.91;;;13.77;;
68700;SDS011;55682;51.114;5.882;2023-04-06T10:00:22;13.57;;;13.47;;
68700;SDS011;55682;51.114;5.882;2023-04-06T10:02:51;13.54;;;13.37;;
68700;SDS011;55682;51.114;5.882;2023-04-06T10:07:53;13.04;;;13.01;;
68700;SDS011;55682;51.114;5.882;2023-04-06T10:10:22;13.20;;;13.05;;
68700;SDS011;55682;51.114;5.882;2023-04-06T10:12:48;12.62;;;12.51;;
68700;SDS011;55682;51.114;5.882;2023-04-06T10:15:15;12.72;;;12.65;;
68700;SDS011;55682;51.114;5.882;2023-04-06T10:17:41;11.45;;;11.34;;
68700;SDS011;55682;51.114;5.882;2023-04-06T10:20:10;10.73;;;10.70;;
68700;SDS011;55682;51.114;5.882;2023-04-06T10:23:13;10.47;;;10.46;;
68700;SDS011;55682;51.114;5.882;2023-04-06T10:25:52;9.98;;;9.92;;
68700;SDS011;55682;51.114;5.882;2023-04-06T10:28:22;9.63;;;9.57;;
68700;SDS011;55682;51.114;5.882;2023-04-06T10:30:49;9.18;;;9.10;;
68700;SDS011;55682;51.114;5.882;2023-04-06T10:33:22;9.73;;;9.63;;
68700;SDS011;55682;51.114;5.882;2023-04-06T10:35:48;8.84;;;8.78;;
68700;SDS011;55682;51.114;5.882;2023-04-06T10:38:14;9.68;;;9.58;;
68700;SDS011;55682;51.114;5.882;2023-04-06T10:40:40;8.94;;;8.88;;
68700;SDS011;55682;51.114;5.882;2023-04-06T10:43:12;8.39;;;8.31;;
68700;SDS011;55682;51.114;5.882;2023-04-06T10:45:43;8.08;;;8.07;;
68700;SDS011;55682;51.114;5.882;2023-04-06T10:48:14;7.86;;;7.86;;
68700;SDS011;55682;51.114;5.882;2023-04-06T10:50:44;7.83;;;7.83;;
68700;SDS011;55682;51.114;5.882;2023-04-06T10:53:11;8.17;;;8.15;;
68700;SDS011;55682;51.114;5.882;2023-04-06T10:55:47;7.98;;;7.98;;
68700;SDS011;55682;51.114;5.882;2023-04-06T10:58:19;7.75;;;7.74;;
68700;SDS011;55682;51.114;5.882;2023-04-06T11:00:46;8.43;;;8.43;;
68700;SDS011;55682;51.114;5.882;2023-04-06T11:03:13;8.42;;;8.42;;
68700;SDS011;55682;51.114;5.882;2023-04-06T11:05:43;7.07;;;7.07;;
68700;SDS011;55682;51.114;5.882;2023-04-06T11:08:25;7.60;;;7.55;;
68700;SDS011;55682;51.114;5.882;2023-04-06T11:11:07;7.84;;;7.79;;
68700;SDS011;55682;51.114;5.882;2023-04-06T11:13:44;8.40;;;8.38;;
68700;SDS011;55682;51.114;5.882;2023-04-06T11:16:14;8.56;;;8.56;;
68700;SDS011;55682;51.114;5.882;2023-04-06T11:21:17;8.03;;;8.03;;
68700;SDS011;55682;51.114;5.882;2023-04-06T11:23:43;9.44;;;9.44;;
68700;SDS011;55682;51.114;5.882;2023-04-06T11:26:12;10.22;;;10.13;;
68700;SDS011;55682;51.114;5.882;2023-04-06T11:28:42;9.58;;;9.55;;
68700;SDS011;55682;51.114;5.882;2023-04-06T11:31:11;8.90;;;8.89;;
68700;SDS011;55682;51.114;5.882;2023-04-06T11:33:37;10.05;;;10.03;;
68700;SDS011;55682;51.114;5.882;2023-04-06T11:36:04;9.85;;;9.84;;
68700;SDS011;55682;51.114;5.882;2023-04-06T11:38:31;11.15;;;10.98;;
68700;SDS011;55682;51.114;5.882;2023-04-06T11:40:57;11.04;;;10.99;;
68700;SDS011;55682;51.114;5.882;2023-04-06T11:43:27;10.59;;;10.47;;
68700;SDS011;55682;51.114;5.882;2023-04-06T11:45:59;9.69;;;9.62;;
68700;SDS011;55682;51.114;5.882;2023-04-06T11:48:26;9.53;;;9.43;;
68700;SDS011;55682;51.114;5.882;2023-04-06T11:50:56;10.82;;;10.72;;
68700;SDS011;55682;51.114;5.882;2023-04-06T11:53:29;9.60;;;9.55;;
68700;SDS011;55682;51.114;5.882;2023-04-06T11:55:55;9.38;;;9.35;;
68700;SDS011;55682;51.114;5.882;2023-04-06T11:58:21;9.52;;;9.37;;
68700;SDS011;55682;51.114;5.882;2023-04-06T12:00:47;9.87;;;9.77;;
68700;SDS011;55682;51.114;5.882;2023-04-06T12:03:13;8.12;;;8.00;;
68700;SDS011;55682;51.114;5.882;2023-04-06T12:05:39;7.30;;;7.24;;
68700;SDS011;55682;51.114;5.882;2023-04-06T12:08:05;7.01;;;6.96;;
68700;SDS011;55682;51.114;5.882;2023-04-06T12:10:30;6.44;;;6.36;;
68700;SDS011;55682;51.114;5.882;2023-04-06T12:12:56;7.37;;;7.30;;
68700;SDS011;55682;51.114;5.882;2023-04-06T12:15:22;6.52;;;6.51;;
68700;SDS011;55682;51.114;5.882;2023-04-06T12:17:47;7.18;;;7.17;;
68700;SDS011;55682;51.114;5.882;2023-04-06T12:20:14;6.95;;;6.93;;
68700;SDS011;55682;51.114;5.882;2023-04-06T12:22:40;7.50;;;7.48;;
68700;SDS011;55682;51.114;5.882;2023-04-06T12:25:06;6.51;;;6.46;;
68700;SDS011;55682;51.114;5.882;2023-04-06T12:27:32;5.47;;;5.40;;
68700;SDS011;55682;51.114;5.882;2023-04-06T12:29:58;5.85;;;5.79;;
68700;SDS011;55682;51.114;5.882;2023-04-06T12:32:23;7.25;;;7.22;;
68700;SDS011;55682;51.114;5.882;2023-04-06T12:34:51;6.66;;;6.64;;
68700;SDS011;55682;51.114;5.882;2023-04-06T12:37:18;7.98;;;7.94;;
68700;SDS011;55682;51.114;5.882;2023-04-06T12:39:43;7.52;;;7.48;;
68700;SDS011;55682;51.114;5.882;2023-04-06T12:42:12;5.94;;;5.89;;
68700;SDS011;55682;51.114;5.882;2023-04-06T12:44:38;5.94;;;5.94;;
68700;SDS011;55682;51.114;5.882;2023-04-06T12:47:04;6.49;;;6.45;;
68700;SDS011;55682;51.114;5.882;2023-04-06T12:49:30;7.90;;;7.83;;
68700;SDS011;55682;51.114;5.882;2023-04-06T12:51:56;7.08;;;7.04;;
68700;SDS011;55682;51.114;5.882;2023-04-06T12:54:22;6.56;;;6.50;;
68700;SDS011;55682;51.114;5.882;2023-04-06T12:56:48;6.59;;;6.59;;
68700;SDS011;55682;51.114;5.882;2023-04-06T12:59:13;6.37;;;6.34;;
68700;SDS011;55682;51.114;5.882;2023-04-06T13:01:39;6.45;;;6.41;;
68700;SDS011;55682;51.114;5.882;2023-04-06T13:04:05;6.55;;;6.42;;
68700;SDS011;55682;51.114;5.882;2023-04-06T13:06:31;6.78;;;6.72;;
68700;SDS011;55682;51.114;5.882;2023-04-06T13:08:56;6.30;;;6.26;;
68700;SDS011;55682;51.114;5.882;2023-04-06T13:11:22;5.64;;;5.62;;
68700;SDS011;55682;51.114;5.882;2023-04-06T13:13:49;6.19;;;6.15;;
68700;SDS011;55682;51.114;5.882;2023-04-06T13:16:14;6.07;;;6.06;;
68700;SDS011;55682;51.114;5.882;2023-04-06T13:18:40;5.76;;;5.76;;
68700;SDS011;55682;51.114;5.882;2023-04-06T13:21:06;6.13;;;6.13;;
68700;SDS011;55682;51.114;5.882;2023-04-06T13:23:32;6.69;;;6.68;;
68700;SDS011;55682;51.114;5.882;2023-04-06T13:28:31;7.15;;;7.12;;
68700;SDS011;55682;51.114;5.882;2023-04-06T13:30:59;6.75;;;6.71;;
68700;SDS011;55682;51.114;5.882;2023-04-06T13:33:28;7.19;;;7.18;;
68700;SDS011;55682;51.114;5.882;2023-04-06T13:35:55;7.23;;;7.22;;
68700;SDS011;55682;51.114;5.882;2023-04-06T13:38:21;7.77;;;7.77;;
68700;SDS011;55682;51.114;5.882;2023-04-06T13:40:49;7.29;;;7.28;;
68700;SDS011;55682;51.114;5.882;2023-04-06T13:43:15;7.17;;;7.17;;
68700;SDS011;55682;51.114;5.882;2023-04-06T13:45:40;6.65;;;6.63;;
68700;SDS011;55682;51.114;5.882;2023-04-06T13:48:06;6.41;;;6.40;;
68700;SDS011;55682;51.114;5.882;2023-04-06T13:50:32;5.50;;;5.50;;
68700;SDS011;55682;51.114;5.882;2023-04-06T13:52:58;5.89;;;5.89;;
68700;SDS011;55682;51.114;5.882;2023-04-06T13:55:24;5.99;;;5.96;;
68700;SDS011;55682;51.114;5.882;2023-04-06T13:57:50;6.48;;;6.45;;
68700;SDS011;55682;51.114;5.882;2023-04-06T14:00:16;6.11;;;6.07;;
68700;SDS011;55682;51.114;5.882;2023-04-06T14:02:42;6.60;;;6.56;;
68700;SDS011;55682;51.114;5.882;2023-04-06T14:05:08;7.73;;;7.64;;
68700;SDS011;55682;51.114;5.882;2023-04-06T14:07:34;7.06;;;7.05;;
68700;SDS011;55682;51.114;5.882;2023-04-06T14:10:00;6.46;;;6.41;;
68700;SDS011;55682;51.114;5.882;2023-04-06T14:12:25;5.85;;;5.81;;
68700;SDS011;55682;51.114;5.882;2023-04-06T14:14:52;5.36;;;5.34;;
68700;SDS011;55682;51.114;5.882;2023-04-06T14:17:18;5.68;;;5.63;;
68700;SDS011;55682;51.114;5.882;2023-04-06T14:19:43;5.93;;;5.86;;
68700;SDS011;55682;51.114;5.882;2023-04-06T14:22:09;6.54;;;6.48;;
68700;SDS011;55682;51.114;5.882;2023-04-06T14:24:35;6.94;;;6.93;;
68700;SDS011;55682;51.114;5.882;2023-04-06T14:27:02;6.24;;;6.23;;
68700;SDS011;55682;51.114;5.882;2023-04-06T14:29:27;6.65;;;6.64;;
68700;SDS011;55682;51.114;5.882;2023-04-06T14:31:53;6.78;;;6.78;;
68700;SDS011;55682;51.114;5.882;2023-04-06T14:34:25;5.95;;;5.93;;
68700;SDS011;55682;51.114;5.882;2023-04-06T14:36:51;6.51;;;6.50;;
68700;SDS011;55682;51.114;5.882;2023-04-06T14:39:17;6.35;;;6.35;;
68700;SDS011;55682;51.114;5.882;2023-04-06T14:41:42;5.65;;;5.65;;
68700;SDS011;55682;51.114;5.882;2023-04-06T14:44:08;6.27;;;6.27;;